sensor_id;sensor_type;location;lat;lon;timestamp;pressure;altitude;pressure_sealevel;temperature;humidity
10688;BME280;5392;42.688;23.298;2023-04-30T00:02:11;57317.41;;;-144.48;100.00
10688;BME280;5392;42.688;23.298;2023-04-30T00:04:37;57365.41;;;-144.48;100.00
10688;BME280;5392;42.688;23.298;2023-04-30T00:07:04;57329.94;;;-144.48;100.00
10688;BME280;5392;42.688;23.298;2023-04-30T00:09:30;57317.41;;;-144.48;100.00
10688;BME280;5392;42.688;23.298;2023-04-30T00:11:57;57296.53;;;-144.48;100.00
10688;BME280;5392;42.688;23.298;2023-04-30T00:14:24;57344.53;;;-144.48;100.00
10688;BME280;5392;42.688;23.298;2023-04-30T00:16:50;57342.47;;;-144.48;100.00
10688;BME280;5392;42.688;23.298;2023-04-30T00:19:17;57311.16;;;-144.48;100.00
10688;BME280;5392;42.688;23.298;2023-04-30T00:21:44;57319.50;;;-144.48;100.00
10688;BME280;5392;42.688;23.298;2023-04-30T00:24:11;57319.50;;;-144.48;100.00
10688;BME280;5392;42.688;23.298;2023-04-30T00:26:38;57315.31;;;-144.48;100.00
10688;BME280;5392;42.688;23.298;2023-04-30T00:29:05;57313.22;;;-144.48;100.00
10688;BME280;5392;42.688;23.298;2023-04-30T00:31:32;57288.19;;;-144.48;100.00
10688;BME280;5392;42.688;23.298;2023-04-30T00:33:59;57313.22;;;-144.48;100.00
10688;BME280;5392;42.688;23.298;2023-04-30T00:36:25;57336.19;;;-144.48;100.00
10688;BME280;5392;42.688;23.298;2023-04-30T00:38:52;57336.19;;;-144.48;100.00
10688;BME280;5392;42.688;23.298;2023-04-30T00:41:19;57338.28;;;-144.48;100.00
10688;BME280;5392;42.688;23.298;2023-04-30T00:43:47;57342.47;;;-144.48;100.00
10688;BME280;5392;42.688;23.298;2023-04-30T00:46:14;57313.22;;;-144.48;100.00
10688;BME280;5392;42.688;23.298;2023-04-30T00:48:41;57323.66;;;-144.48;100.00
10688;BME280;5392;42.688;23.298;2023-04-30T00:51:08;57275.66;;;-144.48;100.00
10688;BME280;5392;42.688;23.298;2023-04-30T00:53:36;57334.09;;;-144.48;100.00
10688;BME280;5392;42.688;23.298;2023-04-30T00:56:04;57273.56;;;-144.48;100.00
10688;BME280;5392;42.688;23.298;2023-04-30T00:58:32;57348.72;;;-144.48;100.00
10688;BME280;5392;42.688;23.298;2023-04-30T01:01:00;57323.66;;;-144.48;100.00
10688;BME280;5392;42.688;23.298;2023-04-30T01:03:27;57309.06;;;-144.48;100.00
10688;BME280;5392;42.688;23.298;2023-04-30T01:05:54;57313.22;;;-144.48;100.00
10688;BME280;5392;42.688;23.298;2023-04-30T01:08:21;57340.38;;;-144.48;100.00
10688;BME280;5392;42.688;23.298;2023-04-30T01:10:54;57369.59;;;-144.48;100.00
10688;BME280;5392;42.688;23.298;2023-04-30T01:13:58;57321.59;;;-144.48;100.00
10688;BME280;5392;42.688;23.298;2023-04-30T01:16:29;57309.06;;;-144.48;100.00
10688;BME280;5392;42.688;23.298;2023-04-30T01:19:08;57332.03;;;-144.48;100.00
10688;BME280;5392;42.688;23.298;2023-04-30T01:21:39;57363.31;;;-144.48;100.00
10688;BME280;5392;42.688;23.298;2023-04-30T01:29:25;57325.75;;;-144.48;100.00
10688;BME280;5392;42.688;23.298;2023-04-30T01:31:53;57306.97;;;-144.48;100.00
10688;BME280;5392;42.688;23.298;2023-04-30T01:34:19;57352.91;;;-144.48;100.00
10688;BME280;5392;42.688;23.298;2023-04-30T01:43:11;57367.50;;;-144.48;100.00
10688;BME280;5392;42.688;23.298;2023-04-30T01:48:36;57321.59;;;-144.48;100.00
10688;BME280;5392;42.688;23.298;2023-04-30T01:51:14;57315.31;;;-144.48;100.00
10688;BME280;5392;42.688;23.298;2023-04-30T01:53:43;57298.63;;;-144.48;100.00
10688;BME280;5392;42.688;23.298;2023-04-30T01:56:29;57334.09;;;-144.48;100.00
10688;BME280;5392;42.688;23.298;2023-04-30T01:58:58;57327.84;;;-144.48;100.00
10688;BME280;5392;42.688;23.298;2023-04-30T02:03:52;57325.75;;;-144.48;100.00
10688;BME280;5392;42.688;23.298;2023-04-30T02:06:19;57288.19;;;-144.48;100.00
10688;BME280;5392;42.688;23.298;2023-04-30T02:08:47;57319.50;;;-144.48;100.00
10688;BME280;5392;42.688;23.298;2023-04-30T02:11:13;57334.09;;;-144.48;100.00
10688;BME280;5392;42.688;23.298;2023-04-30T02:13:40;57302.81;;;-144.48;100.00
10688;BME280;5392;42.688;23.298;2023-04-30T02:16:07;57350.81;;;-144.48;100.00
10688;BME280;5392;42.688;23.298;2023-04-30T02:18:33;57338.28;;;-144.48;100.00
10688;BME280;5392;42.688;23.298;2023-04-30T02:21:00;57319.50;;;-144.48;100.00
10688;BME280;5392;42.688;23.298;2023-04-30T02:23:26;57315.31;;;-144.48;100.00
10688;BME280;5392;42.688;23.298;2023-04-30T02:25:53;57300.72;;;-144.48;100.00
10688;BME280;5392;42.688;23.298;2023-04-30T02:28:20;57317.41;;;-144.48;100.00
10688;BME280;5392;42.688;23.298;2023-04-30T02:30:47;57344.53;;;-144.48;100.00
10688;BME280;5392;42.688;23.298;2023-04-30T02:33:14;57288.19;;;-144.48;100.00
10688;BME280;5392;42.688;23.298;2023-04-30T02:35:41;57325.75;;;-144.48;100.00
10688;BME280;5392;42.688;23.298;2023-04-30T02:38:07;57332.03;;;-144.48;100.00
10688;BME280;5392;42.688;23.298;2023-04-30T02:40:35;57350.81;;;-144.48;100.00
10688;BME280;5392;42.688;23.298;2023-04-30T02:43:01;57334.09;;;-144.48;100.00
10688;BME280;5392;42.688;23.298;2023-04-30T02:45:30;57275.66;;;-144.48;100.00
10688;BME280;5392;42.688;23.298;2023-04-30T02:47:57;57350.81;;;-144.48;100.00
10688;BME280;5392;42.688;23.298;2023-04-30T02:50:23;57332.03;;;-144.48;100.00
10688;BME280;5392;42.688;23.298;2023-04-30T02:52:50;57329.94;;;-144.48;100.00
10688;BME280;5392;42.688;23.298;2023-04-30T02:55:17;57302.81;;;-144.48;100.00
10688;BME280;5392;42.688;23.298;2023-04-30T02:57:43;57302.81;;;-144.48;100.00
10688;BME280;5392;42.688;23.298;2023-04-30T03:00:11;57306.97;;;-144.48;100.00
10688;BME280;5392;42.688;23.298;2023-04-30T03:02:37;57309.06;;;-144.48;100.00
10688;BME280;5392;42.688;23.298;2023-04-30T03:05:04;57313.22;;;-144.48;100.00
10688;BME280;5392;42.688;23.298;2023-04-30T03:07:31;57292.38;;;-144.48;100.00
10688;BME280;5392;42.688;23.298;2023-04-30T03:09:58;57375.84;;;-144.48;100.00
10688;BME280;5392;42.688;23.298;2023-04-30T03:12:24;57336.19;;;-144.48;100.00
10688;BME280;5392;42.688;23.298;2023-04-30T03:14:51;57354.97;;;-144.48;100.00
10688;BME280;5392;42.688;23.298;2023-04-30T03:17:18;57346.63;;;-144.48;100.00
10688;BME280;5392;42.688;23.298;2023-04-30T03:19:44;57302.81;;;-144.48;100.00
10688;BME280;5392;42.688;23.298;2023-04-30T03:22:11;57329.94;;;-144.48;100.00
10688;BME280;5392;42.688;23.298;2023-04-30T03:24:38;57327.84;;;-144.48;100.00
10688;BME280;5392;42.688;23.298;2023-04-30T03:27:05;57292.38;;;-144.48;100.00
10688;BME280;5392;42.688;23.298;2023-04-30T03:29:32;57375.84;;;-144.48;100.00
10688;BME280;5392;42.688;23.298;2023-04-30T03:31:59;57323.66;;;-144.48;100.00
10688;BME280;5392;42.688;23.298;2023-04-30T03:34:26;57346.63;;;-144.48;100.00
10688;BME280;5392;42.688;23.298;2023-04-30T03:36:52;57309.06;;;-144.48;100.00
10688;BME280;5392;42.688;23.298;2023-04-30T03:39:19;57329.94;;;-144.48;100.00
10688;BME280;5392;42.688;23.298;2023-04-30T03:41:45;57329.94;;;-144.48;100.00
10688;BME280;5392;42.688;23.298;2023-04-30T03:44:12;57323.66;;;-144.48;100.00
10688;BME280;5392;42.688;23.298;2023-04-30T03:46:41;57311.16;;;-144.48;100.00
10688;BME280;5392;42.688;23.298;2023-04-30T03:49:11;57279.84;;;-144.48;100.00
10688;BME280;5392;42.688;23.298;2023-04-30T03:51:39;57325.75;;;-144.48;100.00
10688;BME280;5392;42.688;23.298;2023-04-30T03:54:07;57342.47;;;-144.48;100.00
10688;BME280;5392;42.688;23.298;2023-04-30T03:56:35;57344.53;;;-144.48;100.00
10688;BME280;5392;42.688;23.298;2023-04-30T03:59:02;57319.50;;;-144.48;100.00
10688;BME280;5392;42.688;23.298;2023-04-30T04:01:30;57296.53;;;-144.48;100.00
10688;BME280;5392;42.688;23.298;2023-04-30T04:03:57;57317.41;;;-144.48;100.00
10688;BME280;5392;42.688;23.298;2023-04-30T04:06:24;57346.63;;;-144.48;100.00
10688;BME280;5392;42.688;23.298;2023-04-30T04:08:52;57313.22;;;-144.48;100.00
10688;BME280;5392;42.688;23.298;2023-04-30T04:11:19;57323.66;;;-144.48;100.00
10688;BME280;5392;42.688;23.298;2023-04-30T04:13:46;57329.94;;;-144.48;100.00
10688;BME280;5392;42.688;23.298;2023-04-30T04:16:12;57284.00;;;-144.48;100.00
10688;BME280;5392;42.688;23.298;2023-04-30T04:18:39;57317.41;;;-144.48;100.00
10688;BME280;5392;42.688;23.298;2023-04-30T04:21:05;57323.66;;;-144.48;100.00
10688;BME280;5392;42.688;23.298;2023-04-30T04:23:33;57311.16;;;-144.48;100.00
10688;BME280;5392;42.688;23.298;2023-04-30T04:25:59;57315.31;;;-144.48;100.00
10688;BME280;5392;42.688;23.298;2023-04-30T04:28:27;57338.28;;;-144.48;100.00
10688;BME280;5392;42.688;23.298;2023-04-30T04:30:53;57315.31;;;-144.48;100.00
10688;BME280;5392;42.688;23.298;2023-04-30T04:33:20;57329.94;;;-144.48;100.00
10688;BME280;5392;42.688;23.298;2023-04-30T04:35:47;57292.38;;;-144.48;100.00
10688;BME280;5392;42.688;23.298;2023-04-30T04:38:14;57350.81;;;-144.48;100.00
10688;BME280;5392;42.688;23.298;2023-04-30T04:40:40;57321.59;;;-144.48;100.00
10688;BME280;5392;42.688;23.298;2023-04-30T04:43:16;57334.09;;;-144.48;100.00
10688;BME280;5392;42.688;23.298;2023-04-30T04:45:42;57365.41;;;-144.48;100.00
10688;BME280;5392;42.688;23.298;2023-04-30T04:48:09;57317.41;;;-144.48;100.00
10688;BME280;5392;42.688;23.298;2023-04-30T04:50:36;57261.06;;;-144.48;100.00
10688;BME280;5392;42.688;23.298;2023-04-30T04:53:02;57321.59;;;-144.48;100.00
10688;BME280;5392;42.688;23.298;2023-04-30T04:55:29;57271.50;;;-144.48;100.00
10688;BME280;5392;42.688;23.298;2023-04-30T04:57:56;57275.66;;;-144.48;100.00
10688;BME280;5392;42.688;23.298;2023-04-30T05:00:23;57298.63;;;-144.48;99.07
10688;BME280;5392;42.688;23.298;2023-04-30T05:02:51;57311.16;;;-144.48;98.11
10688;BME280;5392;42.688;23.298;2023-04-30T05:05:18;57292.38;;;-144.48;98.03
10688;BME280;5392;42.688;23.298;2023-04-30T05:07:45;57302.81;;;-144.48;98.14
10688;BME280;5392;42.688;23.298;2023-04-30T05:10:12;57319.50;;;-144.48;98.43
10688;BME280;5392;42.688;23.298;2023-04-30T05:12:38;57313.22;;;-144.48;98.29
10688;BME280;5392;42.688;23.298;2023-04-30T05:15:05;57325.75;;;-144.48;97.77
10688;BME280;5392;42.688;23.298;2023-04-30T05:17:32;57288.19;;;-144.48;98.16
10688;BME280;5392;42.688;23.298;2023-04-30T05:19:59;57311.16;;;-144.48;98.01
10688;BME280;5392;42.688;23.298;2023-04-30T05:22:26;57292.38;;;-144.48;98.23
10688;BME280;5392;42.688;23.298;2023-04-30T05:24:53;57313.22;;;-144.48;98.10
10688;BME280;5392;42.688;23.298;2023-04-30T05:27:19;57298.63;;;-144.48;97.77
10688;BME280;5392;42.688;23.298;2023-04-30T05:29:46;57256.88;;;-144.48;97.69
10688;BME280;5392;42.688;23.298;2023-04-30T05:32:13;57313.22;;;-144.48;96.45
10688;BME280;5392;42.688;23.298;2023-04-30T05:34:39;57313.22;;;-144.48;96.48
10688;BME280;5392;42.688;23.298;2023-04-30T05:37:06;57329.94;;;-144.48;96.40
10688;BME280;5392;42.688;23.298;2023-04-30T05:39:33;57344.53;;;-144.48;95.10
10688;BME280;5392;42.688;23.298;2023-04-30T05:42:00;57338.28;;;-144.48;95.42
10688;BME280;5392;42.688;23.298;2023-04-30T05:44:27;57334.09;;;-144.48;93.76
10688;BME280;5392;42.688;23.298;2023-04-30T05:46:55;57325.75;;;-144.48;93.44
10688;BME280;5392;42.688;23.298;2023-04-30T05:49:22;57275.66;;;-144.48;93.63
10688;BME280;5392;42.688;23.298;2023-04-30T05:51:49;57311.16;;;-144.48;93.15
10688;BME280;5392;42.688;23.298;2023-04-30T05:54:15;57275.66;;;-144.48;92.23
10688;BME280;5392;42.688;23.298;2023-04-30T05:56:43;57319.50;;;-144.48;91.54
10688;BME280;5392;42.688;23.298;2023-04-30T05:59:10;57321.59;;;-144.48;91.06
10688;BME280;5392;42.688;23.298;2023-04-30T06:01:37;57284.00;;;-144.48;89.97
10688;BME280;5392;42.688;23.298;2023-04-30T06:04:03;57275.66;;;-144.48;89.38
10688;BME280;5392;42.688;23.298;2023-04-30T06:06:30;57325.75;;;-144.48;88.43
10688;BME280;5392;42.688;23.298;2023-04-30T06:08:57;57298.63;;;-144.48;88.13
10688;BME280;5392;42.688;23.298;2023-04-30T06:11:24;57286.09;;;-144.48;86.85
10688;BME280;5392;42.688;23.298;2023-04-30T06:13:51;57336.19;;;-144.48;87.67
10688;BME280;5392;42.688;23.298;2023-04-30T06:16:18;57317.41;;;-144.48;87.07
10688;BME280;5392;42.688;23.298;2023-04-30T06:18:45;57306.97;;;-144.48;86.23
10688;BME280;5392;42.688;23.298;2023-04-30T06:21:11;57313.22;;;-144.48;84.08
10688;BME280;5392;42.688;23.298;2023-04-30T06:23:38;57288.19;;;-144.48;83.00
10688;BME280;5392;42.688;23.298;2023-04-30T06:26:05;57317.41;;;-144.48;82.41
10688;BME280;5392;42.688;23.298;2023-04-30T06:28:32;57373.75;;;-144.48;81.08
10688;BME280;5392;42.688;23.298;2023-04-30T06:30:59;57317.41;;;-144.48;81.52
10688;BME280;5392;42.688;23.298;2023-04-30T06:33:26;57273.56;;;-144.48;81.45
10688;BME280;5392;42.688;23.298;2023-04-30T06:35:52;57300.72;;;-144.48;81.52
10688;BME280;5392;42.688;23.298;2023-04-30T06:38:21;57267.31;;;-144.48;82.99
10688;BME280;5392;42.688;23.298;2023-04-30T06:40:47;57325.75;;;-144.48;84.70
10688;BME280;5392;42.688;23.298;2023-04-30T06:43:15;57317.41;;;-144.48;79.01
10688;BME280;5392;42.688;23.298;2023-04-30T06:45:42;57298.63;;;-144.48;69.33
10688;BME280;5392;42.688;23.298;2023-04-30T06:48:08;57327.84;;;-144.48;64.40
10688;BME280;5392;42.688;23.298;2023-04-30T06:50:35;57286.09;;;-144.48;57.49
10688;BME280;5392;42.688;23.298;2023-04-30T06:53:12;57236.00;;;-144.48;54.19
10688;BME280;5392;42.688;23.298;2023-04-30T06:55:43;57286.09;;;-144.48;54.24
10688;BME280;5392;42.688;23.298;2023-04-30T06:58:10;57317.41;;;-144.48;55.21
10688;BME280;5392;42.688;23.298;2023-04-30T07:00:37;57296.53;;;-144.48;57.61
10688;BME280;5392;42.688;23.298;2023-04-30T07:03:03;57267.31;;;-144.48;58.98
10688;BME280;5392;42.688;23.298;2023-04-30T07:05:30;57254.78;;;-144.48;58.30
10688;BME280;5392;42.688;23.298;2023-04-30T07:08:01;57292.38;;;-144.48;58.16
10688;BME280;5392;42.688;23.298;2023-04-30T07:10:29;57302.81;;;-144.48;59.19
10688;BME280;5392;42.688;23.298;2023-04-30T07:12:56;57311.16;;;-144.48;60.61
10688;BME280;5392;42.688;23.298;2023-04-30T07:15:23;57298.63;;;-144.48;60.33
10688;BME280;5392;42.688;23.298;2023-04-30T07:17:49;57286.09;;;-144.48;61.47
10688;BME280;5392;42.688;23.298;2023-04-30T07:20:16;57296.53;;;-144.48;63.36
10688;BME280;5392;42.688;23.298;2023-04-30T07:22:43;57275.66;;;-144.48;64.68
10688;BME280;5392;42.688;23.298;2023-04-30T07:25:12;57315.31;;;-144.48;63.33
10688;BME280;5392;42.688;23.298;2023-04-30T07:27:39;57327.84;;;-144.48;63.53
10688;BME280;5392;42.688;23.298;2023-04-30T07:30:07;57290.28;;;-144.48;64.79
10688;BME280;5392;42.688;23.298;2023-04-30T07:32:37;57298.63;;;-144.48;65.47
10688;BME280;5392;42.688;23.298;2023-04-30T07:35:06;57290.28;;;-144.48;66.00
10688;BME280;5392;42.688;23.298;2023-04-30T07:37:33;57313.22;;;-144.48;64.68
10688;BME280;5392;42.688;23.298;2023-04-30T07:40:01;57300.72;;;-144.48;65.38
10688;BME280;5392;42.688;23.298;2023-04-30T07:42:29;57281.94;;;-144.48;64.56
10688;BME280;5392;42.688;23.298;2023-04-30T07:44:55;57275.66;;;-144.48;63.53
10688;BME280;5392;42.688;23.298;2023-04-30T07:47:22;57300.72;;;-144.48;62.68
10688;BME280;5392;42.688;23.298;2023-04-30T07:49:49;57290.28;;;-144.48;63.87
10688;BME280;5392;42.688;23.298;2023-04-30T07:52:16;57306.97;;;-144.48;64.24
10688;BME280;5392;42.688;23.298;2023-04-30T07:54:43;57279.84;;;-144.48;63.42
10688;BME280;5392;42.688;23.298;2023-04-30T07:57:09;57252.72;;;-144.48;60.92
10688;BME280;5392;42.688;23.298;2023-04-30T07:59:36;57294.44;;;-144.48;58.18
10688;BME280;5392;42.688;23.298;2023-04-30T08:02:03;57281.94;;;-144.48;57.50
10688;BME280;5392;42.688;23.298;2023-04-30T08:04:29;57321.59;;;-144.48;56.66
10688;BME280;5392;42.688;23.298;2023-04-30T08:06:56;57290.28;;;-144.48;57.75
10688;BME280;5392;42.688;23.298;2023-04-30T08:09:23;57298.63;;;-144.48;58.38
10688;BME280;5392;42.688;23.298;2023-04-30T08:11:50;57327.84;;;-144.48;58.38
10688;BME280;5392;42.688;23.298;2023-04-30T08:14:17;57290.28;;;-144.48;58.64
10688;BME280;5392;42.688;23.298;2023-04-30T08:16:44;57309.06;;;-144.48;59.33
10688;BME280;5392;42.688;23.298;2023-04-30T08:19:11;57298.63;;;-144.48;60.66
10688;BME280;5392;42.688;23.298;2023-04-30T08:21:38;57261.06;;;-144.48;61.25
10688;BME280;5392;42.688;23.298;2023-04-30T08:24:04;57296.53;;;-144.48;62.48
10688;BME280;5392;42.688;23.298;2023-04-30T08:26:31;57298.63;;;-144.48;62.55
10688;BME280;5392;42.688;23.298;2023-04-30T08:28:58;57313.22;;;-144.48;61.77
10688;BME280;5392;42.688;23.298;2023-04-30T08:31:24;57317.41;;;-144.48;61.50
10688;BME280;5392;42.688;23.298;2023-04-30T08:33:51;57321.59;;;-144.48;61.32
10688;BME280;5392;42.688;23.298;2023-04-30T08:36:18;57292.38;;;-144.48;60.67
10688;BME280;5392;42.688;23.298;2023-04-30T08:38:45;57296.53;;;-144.48;60.00
10688;BME280;5392;42.688;23.298;2023-04-30T08:41:12;57279.84;;;-144.48;59.49
10688;BME280;5392;42.688;23.298;2023-04-30T08:43:40;57258.97;;;-144.48;58.48
10688;BME280;5392;42.688;23.298;2023-04-30T08:46:07;57304.88;;;-144.48;58.53
10688;BME280;5392;42.688;23.298;2023-04-30T08:48:34;57296.53;;;-144.48;58.13
10688;BME280;5392;42.688;23.298;2023-04-30T08:51:02;57296.53;;;-144.48;58.79
10688;BME280;5392;42.688;23.298;2023-04-30T08:53:30;57309.06;;;-144.48;58.07
10688;BME280;5392;42.688;23.298;2023-04-30T08:55:57;57294.44;;;-144.48;56.98
10688;BME280;5392;42.688;23.298;2023-04-30T08:58:23;57298.63;;;-144.48;55.65
10688;BME280;5392;42.688;23.298;2023-04-30T09:00:52;57290.28;;;-144.48;54.64
10688;BME280;5392;42.688;23.298;2023-04-30T09:03:18;57233.91;;;-144.48;54.22
10688;BME280;5392;42.688;23.298;2023-04-30T09:05:47;57277.75;;;-144.48;53.61
10688;BME280;5392;42.688;23.298;2023-04-30T09:08:17;57254.78;;;-144.48;53.58
10688;BME280;5392;42.688;23.298;2023-04-30T09:10:45;57267.31;;;-144.48;53.26
10688;BME280;5392;42.688;23.298;2023-04-30T09:13:12;57290.28;;;-144.48;52.95
10688;BME280;5392;42.688;23.298;2023-04-30T09:15:39;57271.50;;;-144.48;53.12
10688;BME280;5392;42.688;23.298;2023-04-30T09:18:08;57265.22;;;-144.48;53.06
10688;BME280;5392;42.688;23.298;2023-04-30T09:20:35;57306.97;;;-144.48;52.70
10688;BME280;5392;42.688;23.298;2023-04-30T09:23:07;57309.06;;;-144.48;53.06
10688;BME280;5392;42.688;23.298;2023-04-30T09:25:41;57288.19;;;-144.48;53.96
10688;BME280;5392;42.688;23.298;2023-04-30T09:28:12;57294.44;;;-144.48;53.76
10688;BME280;5392;42.688;23.298;2023-04-30T09:30:40;57250.63;;;-144.48;54.25
10688;BME280;5392;42.688;23.298;2023-04-30T09:33:07;57267.31;;;-144.48;54.49
10688;BME280;5392;42.688;23.298;2023-04-30T09:35:38;57319.50;;;-144.48;53.76
10688;BME280;5392;42.688;23.298;2023-04-30T09:38:05;57273.56;;;-144.48;52.95
10688;BME280;5392;42.688;23.298;2023-04-30T09:40:35;57279.84;;;-144.48;52.33
10688;BME280;5392;42.688;23.298;2023-04-30T09:43:03;57269.41;;;-144.48;52.25
10688;BME280;5392;42.688;23.298;2023-04-30T09:45:43;57275.66;;;-144.48;52.82
10688;BME280;5392;42.688;23.298;2023-04-30T09:48:14;57273.56;;;-144.48;52.88
10688;BME280;5392;42.688;23.298;2023-04-30T09:50:43;57313.22;;;-144.48;52.92
10688;BME280;5392;42.688;23.298;2023-04-30T09:53:13;57292.38;;;-144.48;54.19
10688;BME280;5392;42.688;23.298;2023-04-30T09:55:48;57277.75;;;-144.48;54.79
10688;BME280;5392;42.688;23.298;2023-04-30T09:58:16;57254.78;;;-144.48;55.07
10688;BME280;5392;42.688;23.298;2023-04-30T10:00:45;57284.00;;;-144.48;54.29
10688;BME280;5392;42.688;23.298;2023-04-30T10:03:13;57317.41;;;-144.48;53.91
10688;BME280;5392;42.688;23.298;2023-04-30T10:05:42;57311.16;;;-144.48;54.20
10688;BME280;5392;42.688;23.298;2023-04-30T10:10:46;57309.06;;;-144.48;55.09
10688;BME280;5392;42.688;23.298;2023-04-30T10:13:17;57338.28;;;-144.48;55.21
10688;BME280;5392;42.688;23.298;2023-04-30T10:15:49;57294.44;;;-144.48;56.00
10688;BME280;5392;42.688;23.298;2023-04-30T10:18:21;57302.81;;;-144.48;57.18
10688;BME280;5392;42.688;23.298;2023-04-30T10:20:50;57294.44;;;-144.48;59.51
10688;BME280;5392;42.688;23.298;2023-04-30T10:23:20;57327.84;;;-144.48;62.36
10688;BME280;5392;42.688;23.298;2023-04-30T10:25:47;57373.75;;;-144.48;73.68
10688;BME280;5392;42.688;23.298;2023-04-30T10:28:16;57350.81;;;-144.48;91.75
10688;BME280;5392;42.688;23.298;2023-04-30T10:30:43;57319.50;;;-144.48;100.00
10688;BME280;5392;42.688;23.298;2023-04-30T10:33:28;57329.94;;;-144.48;100.00
10688;BME280;5392;42.688;23.298;2023-04-30T10:36:04;57340.38;;;-144.48;100.00
10688;BME280;5392;42.688;23.298;2023-04-30T10:38:33;57357.06;;;-144.48;100.00
10688;BME280;5392;42.688;23.298;2023-04-30T10:41:00;57354.97;;;-144.48;100.00
10688;BME280;5392;42.688;23.298;2023-04-30T10:43:30;57350.81;;;-144.48;100.00
10688;BME280;5392;42.688;23.298;2023-04-30T10:45:58;57363.31;;;-144.48;100.00
10688;BME280;5392;42.688;23.298;2023-04-30T10:48:25;57327.84;;;-144.48;100.00
10688;BME280;5392;42.688;23.298;2023-04-30T10:50:57;57334.09;;;-144.48;94.51
10688;BME280;5392;42.688;23.298;2023-04-30T10:53:25;57340.38;;;-144.48;87.95
10688;BME280;5392;42.688;23.298;2023-04-30T10:55:58;57317.41;;;-144.48;83.74
10688;BME280;5392;42.688;23.298;2023-04-30T10:58:29;57300.72;;;-144.48;82.14
10688;BME280;5392;42.688;23.298;2023-04-30T11:01:00;57346.63;;;-144.48;75.26
10688;BME280;5392;42.688;23.298;2023-04-30T11:03:28;57323.66;;;-144.48;74.16
10688;BME280;5392;42.688;23.298;2023-04-30T11:05:55;57354.97;;;-144.48;74.75
10688;BME280;5392;42.688;23.298;2023-04-30T11:08:35;57329.94;;;-144.48;62.52
10688;BME280;5392;42.688;23.298;2023-04-30T11:11:03;57346.63;;;-144.48;59.86
10688;BME280;5392;42.688;23.298;2023-04-30T11:16:06;57275.66;;;-144.48;60.12
10688;BME280;5392;42.688;23.298;2023-04-30T11:18:34;57319.50;;;-144.48;60.17
10688;BME280;5392;42.688;23.298;2023-04-30T11:21:07;57292.38;;;-144.48;60.96
10688;BME280;5392;42.688;23.298;2023-04-30T11:23:34;57354.97;;;-144.48;58.39
10688;BME280;5392;42.688;23.298;2023-04-30T11:26:08;57279.84;;;-144.48;58.18
10688;BME280;5392;42.688;23.298;2023-04-30T11:28:36;57325.75;;;-144.48;58.57
10688;BME280;5392;42.688;23.298;2023-04-30T11:31:03;57290.28;;;-144.48;57.59
10688;BME280;5392;42.688;23.298;2023-04-30T11:33:31;57309.06;;;-144.48;57.49
10688;BME280;5392;42.688;23.298;2023-04-30T11:35:59;57298.63;;;-144.48;59.89
10688;BME280;5392;42.688;23.298;2023-04-30T11:38:27;57313.22;;;-144.48;59.46
10688;BME280;5392;42.688;23.298;2023-04-30T11:40:57;57329.94;;;-144.48;57.29
10688;BME280;5392;42.688;23.298;2023-04-30T11:43:31;57338.28;;;-144.48;59.25
10688;BME280;5392;42.688;23.298;2023-04-30T11:46:11;57329.94;;;-144.48;63.38
10688;BME280;5392;42.688;23.298;2023-04-30T11:48:43;57321.59;;;-144.48;64.79
10688;BME280;5392;42.688;23.298;2023-04-30T11:51:19;57336.19;;;-144.48;65.03
10688;BME280;5392;42.688;23.298;2023-04-30T11:53:48;57340.38;;;-144.48;65.76
10688;BME280;5392;42.688;23.298;2023-04-30T11:58:48;57296.53;;;-144.48;68.19
10688;BME280;5392;42.688;23.298;2023-04-30T12:01:15;57309.06;;;-144.48;70.66
10688;BME280;5392;42.688;23.298;2023-04-30T12:03:44;57294.44;;;-144.48;69.76
10688;BME280;5392;42.688;23.298;2023-04-30T12:06:20;57317.41;;;-144.48;69.57
10688;BME280;5392;42.688;23.298;2023-04-30T12:08:48;57332.03;;;-144.48;68.90
10688;BME280;5392;42.688;23.298;2023-04-30T12:11:28;57338.28;;;-144.48;69.05
10688;BME280;5392;42.688;23.298;2023-04-30T12:14:08;57340.38;;;-144.48;72.07
10688;BME280;5392;42.688;23.298;2023-04-30T12:16:46;57344.53;;;-144.48;71.84
10688;BME280;5392;42.688;23.298;2023-04-30T12:19:20;57367.50;;;-144.48;74.05
10688;BME280;5392;42.688;23.298;2023-04-30T12:21:48;57344.53;;;-144.48;77.59
10688;BME280;5392;42.688;23.298;2023-04-30T12:24:17;57338.28;;;-144.48;77.01
10688;BME280;5392;42.688;23.298;2023-04-30T12:26:45;57325.75;;;-144.48;83.56
10688;BME280;5392;42.688;23.298;2023-04-30T12:29:14;57346.63;;;-144.48;86.27
10688;BME280;5392;42.688;23.298;2023-04-30T12:31:42;57354.97;;;-144.48;89.93
10688;BME280;5392;42.688;23.298;2023-04-30T12:34:11;57344.53;;;-144.48;91.24
10688;BME280;5392;42.688;23.298;2023-04-30T12:36:39;57361.25;;;-144.48;90.15
10688;BME280;5392;42.688;23.298;2023-04-30T12:39:11;57336.19;;;-144.48;87.87
10688;BME280;5392;42.688;23.298;2023-04-30T12:41:43;57363.31;;;-144.48;80.55
10688;BME280;5392;42.688;23.298;2023-04-30T12:46:44;57359.16;;;-144.48;82.60
10688;BME280;5392;42.688;23.298;2023-04-30T12:49:27;57302.81;;;-144.48;82.09
10688;BME280;5392;42.688;23.298;2023-04-30T12:52:12;57346.63;;;-144.48;76.95
10688;BME280;5392;42.688;23.298;2023-04-30T12:54:41;57332.03;;;-144.48;81.80
10688;BME280;5392;42.688;23.298;2023-04-30T12:57:10;57342.47;;;-144.48;79.33
10688;BME280;5392;42.688;23.298;2023-04-30T13:02:24;57338.28;;;-144.48;74.21
10688;BME280;5392;42.688;23.298;2023-04-30T13:04:53;57334.09;;;-144.48;71.05
10688;BME280;5392;42.688;23.298;2023-04-30T13:07:19;57317.41;;;-144.48;71.77
10688;BME280;5392;42.688;23.298;2023-04-30T13:09:46;57332.03;;;-144.48;72.11
10688;BME280;5392;42.688;23.298;2023-04-30T13:12:13;57336.19;;;-144.48;70.76